Terminal Aerodrome Forecast
Issued by NWS

Home | Current Version | Previous Version | Text Only | Print | Product List | Glossary On
Versions: 1 2 3 4 5 6 7 8 9 10 11 12 13 14 15 16 17 18
000
FTUS46 KSTO 170539
TAFRDD
TAF
KRDD 170539Z 1706/1806 36006KT P6SM SCT250
      TEMPO 1711/1715 2SM BR SCT002
     FM171700 VRB02KT P6SM OVC250
     FM180200 15004KT P6SM OVC100
      TEMPO 1803/1806 -RA OVC050=

USA.gov is the U.S. government's official web portal to all federal, state and local government web resources and services.